Bivins, Texas
Current Conditions -  °F | °C
As of 12:15 AM on Sunday 23 Nov 2014 (Local Time) from KTXK Reporting Station
Overcast Overcast  
Wind Chill: 60°   Ceiling: 600
Heat Index: 60°   Visibility: 7mi
Dew Point: 59°   Wind: 8mph
Humidity: 96%   Direction: 130°SE
Pressure: 29.78"   Gusts: NA
Location:  33.02°N, 94.2°W
Report Text: KTXK 230615Z AUTO 13007KT 7SM BKN006 BKN044 OVC065 16/15 A2978 RMK AO2 RAE14 P0000 T01560150
Loading
Personal Weather Stations






























Interactive Weather Map New forecast layout! Learn more

10-Day Weather Forecast

Advertisements
Track Severe Weather on mobile